Time;durP1;ratioP1;P1;durP2;ratioP2;P2;SDS_P1;SDS_P2;PMS_P1;PMS_P2;Temp;Humidity;BMP_temperature;BMP_pressure;BME280_temperature;BME280_humidity;BME280_pressure;Samples;Min_cycle;Max_cycle;Signal;HPM_P1;HPM_P2
2023/05/30 11:00:27;;;;;;;6.00;0.50;;;;;;;24.53;29.64;100177.02;104991;1299;550964;-83
2023/05/30 11:06:42;;;;;;;1.30;0.60;;;;;;;24.47;29.40;100161.20;86277;1301;22982;-82
2023/05/30 11:09:14;;;;;;;2.40;0.30;;;;;;;24.35;29.75;100161.77;104908;1301;136754;-81
2023/05/30 11:11:46;;;;;;;1.50;0.60;;;;;;;24.31;29.57;100159.96;106645;1288;23755;-82
2023/05/30 11:14:30;;;;;;;1.40;0.70;;;;;;;24.27;29.64;100159.50;104740;1301;139272;-81
2023/05/30 11:17:08;;;;;;;2.50;0.70;;;;;;;24.20;29.84;100155.70;107735;1294;23609;-80
2023/05/30 11:19:43;;;;;;;5.40;0.40;;;;;;;24.06;29.90;100147.19;107338;1306;22214;-81
2023/05/30 11:22:17;;;;;;;0.60;0.50;;;;;;;24.01;30.08;100145.95;107551;1296;138007;-81
2023/05/30 11:24:45;;;;;;;1.80;0.80;;;;;;;24.04;30.03;100149.38;107300;1292;139937;-80
2023/05/30 11:27:15;;;;;;;4.10;0.70;;;;;;;24.06;30.16;100143.58;107162;1305;22232;-84
2023/05/30 11:29:48;;;;;;;3.00;0.40;;;;;;;24.11;30.09;100147.32;107123;1302;138095;-84
2023/05/30 11:32:18;;;;;;;1.00;0.30;;;;;;;24.09;30.13;100149.16;107313;1301;139021;-84
2023/05/30 11:34:45;;;;;;;5.30;0.50;;;;;;;24.07;29.58;100141.56;107662;1293;22205;-85
2023/05/30 11:37:12;;;;;;;1.30;0.60;;;;;;;24.06;29.43;100139.55;107682;1301;138284;-85
2023/05/30 11:39:39;;;;;;;0.70;0.30;;;;;;;24.06;29.38;100149.09;107883;1292;22249;-86
2023/05/30 11:42:10;;;;;;;0.80;0.70;;;;;;;23.96;28.83;100138.91;107607;1298;137749;-82
2023/05/30 11:44:41;;;;;;;1.10;0.50;;;;;;;24.00;28.88;100145.54;107509;1298;137748;-80
2023/05/30 11:47:11;;;;;;;0.80;0.30;;;;;;;23.99;29.06;100140.81;107664;1298;22216;-79
2023/05/30 11:50:03;;;;;;;1.10;0.30;;;;;;;23.99;29.20;100141.95;107550;1304;138177;-83
2023/05/30 11:52:43;;;;;;;1.20;0.70;;;;;;;23.97;29.35;100143.00;107514;1298;137456;-82
2023/05/30 11:55:13;;;;;;;8.60;7.90;;;;;;;23.93;29.35;100142.80;105606;1299;22945;-82
2023/05/30 11:57:40;;;;;;;2.10;0.90;;;;;;;23.88;29.66;100140.28;105461;1298;138194;-80
2023/05/30 12:00:11;;;;;;;1.50;0.30;;;;;;;23.87;29.82;100140.55;105354;1297;137929;-81
2023/05/30 12:02:40;;;;;;;3.10;1.50;;;;;;;23.85;30.00;100145.08;105500;1299;23871;-82
2023/05/30 12:05:08;;;;;;;3.70;1.10;;;;;;;23.83;30.02;100141.23;107687;1296;138112;-82
2023/05/30 12:07:35;;;;;;;2.00;0.40;;;;;;;23.83;30.18;100137.42;106128;1293;22686;-82
2023/05/30 12:10:05;;;;;;;0.70;0.60;;;;;;;23.87;30.16;100137.84;105497;1298;138258;-80
2023/05/30 12:12:32;;;;;;;0.70;0.30;;;;;;;23.89;30.09;100136.20;105329;1298;140001;-85
2023/05/30 12:15:03;;;;;;;0.90;0.60;;;;;;;23.92;29.65;100131.98;105667;1298;24388;-82
2023/05/30 12:25:31;;;;;;;0.60;0.30;;;;;;;23.91;28.79;100137.48;108011;1289;22614;-81
2023/05/30 12:28:00;;;;;;;2.20;0.80;;;;;;;23.89;28.98;100139.52;106885;1292;22693;-81
2023/05/30 12:30:36;;;;;;;1.10;0.60;;;;;;;23.78;29.17;100132.11;104256;1297;137154;-79
2023/05/30 12:33:13;;;;;;;0.80;0.40;;;;;;;23.85;29.32;100143.89;104530;1298;137685;-78
2023/05/30 12:35:41;;;;;;;1.90;0.30;;;;;;;23.86;29.42;100132.33;104627;1296;24238;-76
2023/05/30 12:38:08;;;;;;;1.00;0.40;;;;;;;23.89;29.24;100128.61;104410;1294;137637;-79
2023/05/30 12:40:41;;;;;;;0.90;0.40;;;;;;;23.89;29.15;100133.95;104644;1294;137638;-78
2023/05/30 12:43:08;;;;;;;3.10;0.50;;;;;;;23.88;29.26;100136.57;106498;1285;24275;-79
2023/05/30 12:45:35;;;;;;;3.80;0.90;;;;;;;23.87;29.64;100134.45;104495;1292;139298;-79
2023/05/30 12:48:02;;;;;;;1.00;0.50;;;;;;;23.87;29.80;100135.66;104544;1295;24105;-76
2023/05/30 12:50:29;;;;;;;3.20;0.50;;;;;;;23.88;29.92;100134.73;104653;1294;25429;-77
2023/05/30 12:52:55;;;;;;;2.30;0.50;;;;;;;23.88;29.92;100136.41;104267;1294;137450;-78
2023/05/30 12:55:22;;;;;;;1.50;0.50;;;;;;;23.80;30.33;100120.07;104630;1295;24381;-78
2023/05/30 12:57:48;;;;;;;1.90;0.70;;;;;;;23.78;30.42;100119.16;104530;1294;138417;-78
2023/05/30 13:00:16;;;;;;;1.70;0.30;;;;;;;23.85;30.36;100132.89;104557;1295;137854;-79
2023/05/30 13:03:09;;;;;;;1.80;0.50;;;;;;;23.84;30.26;100134.27;105322;1287;22390;31
2023/05/30 13:05:37;;;;;;;1.30;0.50;;;;;;;23.80;30.15;100135.05;104276;1292;137848;-79
2023/05/30 13:08:03;;;;;;;1.00;0.80;;;;;;;23.76;30.16;100135.42;104256;1301;138006;-79
2023/05/30 13:10:32;;;;;;;2.00;0.30;;;;;;;23.74;30.27;100127.05;104230;1295;24542;-78
2023/05/30 13:12:59;;;;;;;3.00;0.50;;;;;;;23.68;30.14;100130.40;104381;1300;137825;-82
2023/05/30 13:15:26;;;;;;;0.70;0.70;;;;;;;23.66;30.13;100128.46;107020;1288;25380;-79
2023/05/30 13:17:53;;;;;;;7.90;0.70;;;;;;;23.68;30.24;100128.07;104431;1295;137887;-81
2023/05/30 13:21:15;;;;;;;3.40;0.50;;;;;;;23.72;30.40;100134.73;107700;1286;22418;31
2023/05/30 13:23:42;;;;;;;3.10;0.70;;;;;;;23.78;30.33;100129.71;104416;1301;23938;-79
2023/05/30 13:29:52;;;;;;;2.50;0.80;;;;;;;23.82;30.38;100132.48;85892;1288;24172;-78
2023/05/30 13:32:18;;;;;;;4.10;0.50;;;;;;;23.82;30.26;100132.86;104647;1301;138713;-79
2023/05/30 13:34:45;;;;;;;2.60;0.50;;;;;;;23.83;30.27;100127.73;104469;1295;24231;-78
2023/05/30 13:37:11;;;;;;;1.60;0.60;;;;;;;23.84;30.23;100129.63;105155;1295;137659;-78
2023/05/30 13:39:38;;;;;;;3.30;1.00;;;;;;;23.85;30.31;100127.27;104733;1294;24340;-79
2023/05/30 13:42:09;;;;;;;1.70;0.80;;;;;;;23.87;30.18;100128.20;104425;1297;138919;-77
2023/05/30 13:44:36;;;;;;;3.70;0.40;;;;;;;23.89;29.97;100128.56;104744;1295;139354;-78
2023/05/30 13:47:02;;;;;;;3.20;0.30;;;;;;;23.90;30.10;100127.91;104821;1295;23958;-76
2023/05/30 13:49:37;;;;;;;0.90;0.50;;;;;;;23.90;29.94;100126.55;105378;1298;137624;-79
2023/05/30 13:52:03;;;;;;;2.20;0.70;;;;;;;23.94;29.91;100128.86;104608;1295;137996;-75
2023/05/30 13:54:31;;;;;;;3.30;0.50;;;;;;;23.96;30.18;100128.95;104650;1291;25395;-80
2023/05/30 13:56:57;;;;;;;4.20;0.40;;;;;;;23.98;29.78;100136.07;104690;1293;137816;-79
2023/05/30 13:59:24;;;;;;;4.50;0.90;;;;;;;23.98;29.78;100137.42;104696;1294;22568;-78
2023/05/30 14:01:56;;;;;;;3.20;0.80;;;;;;;23.98;29.74;100135.09;104340;1300;139530;-82
2023/05/30 14:04:22;;;;;;;2.50;0.70;;;;;;;23.99;29.74;100132.48;104765;1286;139834;-81
2023/05/30 14:06:51;;;;;;;1.30;0.60;;;;;;;24.01;29.97;100136.44;104446;1288;23926;-81
2023/05/30 14:09:21;;;;;;;0.80;0.80;;;;;;;24.03;29.99;100137.40;104426;1295;137710;-79
2023/05/30 14:11:49;;;;;;;0.60;0.30;;;;;;;24.06;29.80;100138.58;104507;1301;22768;-80
2023/05/30 14:14:20;;;;;;;1.90;1.00;;;;;;;24.05;29.38;100139.40;104456;1294;139425;-79
2023/05/30 14:16:47;;;;;;;1.80;0.80;;;;;;;23.99;29.54;100141.77;105560;1291;138046;-81
2023/05/30 14:19:14;;;;;;;1.20;1.00;;;;;;;23.95;29.55;100141.92;104559;1291;25392;-80
2023/05/30 14:21:41;;;;;;;0.70;0.70;;;;;;;23.93;29.44;100135.84;104140;1297;139422;-81
2023/05/30 14:24:08;;;;;;;1.20;0.40;;;;;;;23.92;29.27;100137.52;104174;1297;138260;-80
2023/05/30 14:26:35;;;;;;;0.90;0.40;;;;;;;23.92;29.13;100136.66;104545;1285;22813;-79
2023/05/30 14:29:02;;;;;;;2.50;0.50;;;;;;;23.92;28.93;100138.61;104297;1297;137606;-81
2023/05/30 14:31:29;;;;;;;1.20;0.40;;;;;;;23.91;28.92;100136.45;104488;1295;24455;-79
2023/05/30 14:33:56;;;;;;;3.20;0.50;;;;;;;23.93;29.07;100136.60;104189;1291;137346;-79
2023/05/30 14:36:26;;;;;;;3.90;0.60;;;;;;;23.97;29.02;100135.44;104358;1297;137847;-79
2023/05/30 14:38:52;;;;;;;2.70;1.00;;;;;;;24.01;29.00;100137.30;104603;1297;22575;-79
2023/05/30 14:41:19;;;;;;;0.90;0.40;;;;;;;24.05;28.90;100135.16;104595;1295;137628;-82
2023/05/30 14:43:46;;;;;;;1.10;0.50;;;;;;;24.06;28.67;100130.90;104685;1294;22598;-82
2023/05/30 14:46:12;;;;;;;2.50;0.80;;;;;;;24.09;28.61;100131.20;104278;1301;138853;-82
2023/05/30 14:48:42;;;;;;;11.60;1.00;;;;;;;24.10;28.68;100130.43;104295;1298;140137;-79
2023/05/30 14:51:10;;;;;;;4.90;1.00;;;;;;;24.11;28.74;100130.70;104387;1300;22656;-80
2023/05/30 14:53:37;;;;;;;2.70;0.70;;;;;;;24.13;28.61;100128.34;104275;1294;137235;-79
2023/05/30 14:56:04;;;;;;;0.80;0.80;;;;;;;24.14;28.26;100126.71;104277;1294;138123;-80
2023/05/30 14:58:31;;;;;;;0.80;0.40;;;;;;;24.13;28.26;100122.69;104436;1290;25320;-82
2023/05/30 15:00:58;;;;;;;1.90;0.70;;;;;;;24.10;28.54;100119.33;104188;1291;138065;-81
2023/05/30 15:03:30;;;;;;;0.70;0.70;;;;;;;24.08;28.46;100121.46;104470;1294;24362;-81
2023/05/30 15:05:57;;;;;;;3.50;1.20;;;;;;;24.07;28.46;100121.64;104051;1297;137473;-80
2023/05/30 15:08:24;;;;;;;1.30;0.90;;;;;;;24.08;28.60;100121.85;104295;1292;138109;-80
2023/05/30 15:10:51;;;;;;;3.10;1.00;;;;;;;24.09;28.51;100121.02;104535;1298;25484;-83
2023/05/30 15:13:18;;;;;;;2.10;0.50;;;;;;;24.09;28.65;100117.98;104273;1294;137589;-81
2023/05/30 15:15:45;;;;;;;0.50;0.50;;;;;;;24.10;28.81;100120.14;104470;1295;24235;-80
2023/05/30 15:18:11;;;;;;;0.70;0.60;;;;;;;24.13;29.21;100121.82;104125;1294;138891;-80
2023/05/30 15:20:38;;;;;;;1.20;0.70;;;;;;;24.13;29.45;100120.34;104123;1297;138846;-79
2023/05/30 15:23:05;;;;;;;1.80;0.90;;;;;;;24.14;29.72;100119.90;104444;1291;25443;-81
2023/05/30 15:25:32;;;;;;;1.00;0.80;;;;;;;24.14;29.86;100115.17;104754;1294;139325;-82
2023/05/30 15:27:59;;;;;;;1.90;1.00;;;;;;;24.13;30.12;100117.94;104674;1294;24118;-80
2023/05/30 15:30:26;;;;;;;1.70;0.90;;;;;;;24.13;30.26;100113.92;104808;1284;136948;-81
2023/05/30 15:32:55;;;;;;;1.80;0.90;;;;;;;24.13;30.02;100115.83;105469;1297;138265;-79
2023/05/30 15:35:22;;;;;;;1.20;1.10;;;;;;;24.15;29.90;100119.08;104336;1298;24233;-82
2023/05/30 15:37:48;;;;;;;0.80;0.80;;;;;;;24.15;29.91;100123.20;104431;1294;139344;-81
2023/05/30 15:40:15;;;;;;;1.30;0.80;;;;;;;24.14;29.61;100122.35;104319;1306;138847;-80
2023/05/30 15:42:44;;;;;;;2.10;0.90;;;;;;;24.13;29.53;100124.54;104289;1298;25492;-80
2023/05/30 15:45:11;;;;;;;3.90;1.20;;;;;;;24.11;29.32;100125.15;104413;1291;137600;-79
2023/05/30 15:47:38;;;;;;;1.00;1.00;;;;;;;24.07;29.41;100124.02;104656;1297;23282;-80
2023/05/30 15:50:05;;;;;;;1.70;0.80;;;;;;;24.04;29.44;100127.65;104170;1291;140682;-79
2023/05/30 15:52:33;;;;;;;1.80;1.30;;;;;;;24.01;29.49;100122.55;104359;1294;139330;-83
2023/05/30 15:55:00;;;;;;;1.90;1.00;;;;;;;23.99;29.51;100128.39;104556;1294;25418;-79
2023/05/30 15:57:26;;;;;;;3.90;1.20;;;;;;;23.97;29.70;100129.16;104569;1291;137738;-80
2023/05/30 15:59:53;;;;;;;9.30;1.00;;;;;;;23.95;29.26;100132.66;104753;1297;22666;-78
2023/05/30 16:02:20;;;;;;;1.20;1.00;;;;;;;23.92;29.45;100128.83;104275;1297;137360;-81
2023/05/30 16:04:46;;;;;;;2.10;0.70;;;;;;;23.89;29.52;100132.81;104433;1291;138008;-82
2023/05/30 16:07:16;;;;;;;1.30;1.20;;;;;;;23.86;29.51;100134.52;104588;1297;25937;-82
2023/05/30 16:09:43;;;;;;;1.10;0.70;;;;;;;23.84;29.56;100135.02;104455;1294;138131;-81
2023/05/30 16:12:10;;;;;;;1.80;1.10;;;;;;;23.75;29.66;100123.80;104478;1301;138037;-84
2023/05/30 16:14:37;;;;;;;3.90;0.70;;;;;;;23.81;29.25;100135.52;104684;1297;23823;-82
2023/05/30 16:17:04;;;;;;;1.10;0.80;;;;;;;23.79;29.24;100137.33;104540;1291;138106;-81
2023/05/30 16:19:31;;;;;;;1.10;0.70;;;;;;;23.76;29.36;100136.39;104578;1299;24082;-80
2023/05/30 16:22:00;;;;;;;2.00;0.80;;;;;;;23.73;29.60;100134.95;104561;1295;138103;-81
2023/05/30 16:24:27;;;;;;;5.70;1.40;;;;;;;23.69;29.84;100138.45;104501;1291;141100;-79
2023/05/30 16:26:54;;;;;;;2.50;1.20;;;;;;;23.63;29.86;100137.50;104309;1295;24434;-80
2023/05/30 16:29:21;;;;;;;3.70;0.90;;;;;;;23.60;30.00;100139.43;104432;1294;138626;-82
2023/05/30 16:31:48;;;;;;;0.80;0.70;;;;;;;23.57;30.01;100144.45;104562;1298;22935;-81
2023/05/30 16:34:15;;;;;;;1.00;0.90;;;;;;;23.54;30.13;100146.80;104322;1297;138417;-82
2023/05/30 16:36:42;;;;;;;1.10;1.00;;;;;;;23.52;30.23;100146.75;104425;1297;138872;-81
2023/05/30 16:39:11;;;;;;;3.00;0.60;;;;;;;23.50;30.05;100147.95;104401;1299;24261;-84
2023/05/30 16:41:39;;;;;;;0.70;0.70;;;;;;;23.49;30.06;100147.92;104484;1295;139053;-85
2023/05/30 16:44:06;;;;;;;2.90;0.50;;;;;;;23.46;29.94;100151.08;104458;1292;138055;-84
2023/05/30 16:46:33;;;;;;;1.80;1.10;;;;;;;23.44;30.09;100149.63;104745;1292;23977;-85
2023/05/30 16:49:00;;;;;;;1.80;0.90;;;;;;;23.41;30.18;100147.61;104533;1294;141403;-80
2023/05/30 16:51:27;;;;;;;3.10;1.10;;;;;;;23.39;30.45;100151.70;104484;1294;23941;-81
2023/05/30 16:53:54;;;;;;;2.40;0.80;;;;;;;23.36;30.45;100152.91;104566;1291;139318;-83
2023/05/30 16:56:21;;;;;;;5.40;0.80;;;;;;;23.34;30.42;100159.34;104811;1288;138282;-84
2023/05/30 16:58:48;;;;;;;1.00;1.00;;;;;;;23.31;30.41;100159.95;104830;1305;24108;-84
2023/05/30 17:01:15;;;;;;;3.00;0.90;;;;;;;23.28;30.49;100159.36;104614;1294;139018;-85
2023/05/30 17:03:43;;;;;;;4.80;1.10;;;;;;;23.26;30.62;100162.36;104235;1297;22711;-83
2023/05/30 17:06:13;;;;;;;1.20;1.20;;;;;;;23.24;30.77;100165.41;104363;1297;138042;-83
2023/05/30 17:08:41;;;;;;;1.00;0.90;;;;;;;23.22;31.00;100165.80;104332;1294;137267;-82
2023/05/30 17:11:11;;;;;;;1.10;0.80;;;;;;;23.20;31.05;100167.65;104397;1301;25414;-81
2023/05/30 17:13:39;;;;;;;0.90;0.70;;;;;;;23.17;30.95;100170.86;104227;1294;137705;-81
2023/05/30 17:16:07;;;;;;;1.20;1.10;;;;;;;23.14;31.22;100172.67;104283;1297;138540;-80
2023/05/30 17:18:34;;;;;;;3.50;1.20;;;;;;;23.11;31.38;100172.95;104245;1297;23915;-81
2023/05/30 17:21:01;;;;;;;3.20;0.70;;;;;;;23.08;31.63;100173.77;104267;1297;138610;-78
2023/05/30 17:23:30;;;;;;;3.10;1.10;;;;;;;23.03;31.78;100172.84;104330;1296;26127;-75
2023/05/30 17:25:56;;;;;;;2.30;1.20;;;;;;;22.97;32.02;100178.17;104802;1295;137969;-79
2023/05/30 17:28:29;;;;;;;5.10;0.90;;;;;;;22.91;32.22;100182.25;104622;1288;139453;-75
2023/05/30 17:30:57;;;;;;;1.80;1.40;;;;;;;22.86;32.20;100183.78;104669;1288;22822;-80
2023/05/30 17:33:24;;;;;;;4.00;0.90;;;;;;;22.80;32.35;100186.18;104466;1294;137612;-74
2023/05/30 17:35:54;;;;;;;4.00;0.80;;;;;;;22.73;32.44;100184.18;104658;1297;27567;-76
2023/05/30 17:38:21;;;;;;;3.90;0.70;;;;;;;22.68;32.78;100185.81;104512;1300;137813;-78
2023/05/30 17:40:48;;;;;;;3.10;0.70;;;;;;;22.63;32.88;100186.16;104364;1297;138216;-76
2023/05/30 17:43:16;;;;;;;5.90;1.00;;;;;;;22.58;32.96;100188.64;104524;1297;25426;-77
2023/05/30 17:45:45;;;;;;;2.90;1.00;;;;;;;22.52;33.05;100188.77;104430;1297;139487;-79
2023/05/30 17:48:12;;;;;;;1.10;0.90;;;;;;;22.46;33.18;100187.02;104532;1297;138181;-79
2023/05/30 17:50:43;;;;;;;1.90;0.80;;;;;;;22.41;33.19;100189.61;104710;1292;25378;-77
2023/05/30 17:53:10;;;;;;;4.10;1.70;;;;;;;22.36;33.49;100191.58;104736;1291;137832;-77
2023/05/30 17:55:37;;;;;;;2.10;1.70;;;;;;;22.30;33.65;100188.95;104514;1294;25436;-79
2023/05/30 17:58:06;;;;;;;4.00;1.60;;;;;;;22.25;33.84;100189.30;104982;1294;137963;-76
2023/05/30 18:00:35;;;;;;;2.30;1.70;;;;;;;22.19;34.04;100188.33;104349;1291;138161;-74
2023/05/30 18:03:06;;;;;;;4.30;1.60;;;;;;;22.14;34.22;100193.95;104278;1291;23947;-77
2023/05/30 18:05:33;;;;;;;8.40;2.60;;;;;;;22.09;34.53;100192.97;104611;1291;139177;-77
2023/05/30 18:08:03;;;;;;;2.90;2.40;;;;;;;22.04;34.68;100194.04;104429;1292;25489;-78
2023/05/30 18:10:32;;;;;;;3.70;3.10;;;;;;;21.98;34.97;100193.00;104781;1288;24262;-78
2023/05/30 18:12:59;;;;;;;3.70;1.90;;;;;;;21.94;34.96;100192.17;104517;1294;137136;-80
2023/05/30 18:15:28;;;;;;;3.50;2.00;;;;;;;21.90;35.02;100196.88;104710;1294;26620;-76
2023/05/30 18:17:55;;;;;;;2.80;1.90;;;;;;;21.86;35.10;100200.13;104821;1294;138408;-77
2023/05/30 18:20:22;;;;;;;3.90;2.20;;;;;;;21.82;35.08;100199.09;104666;1295;137828;-79
2023/05/30 18:22:49;;;;;;;3.20;1.80;;;;;;;21.79;35.28;100202.65;104513;1298;25431;-77
2023/05/30 18:25:16;;;;;;;4.50;2.20;;;;;;;21.75;35.41;100204.32;104603;1303;138130;-76
2023/05/30 18:27:43;;;;;;;5.90;2.40;;;;;;;21.69;35.69;100205.81;104573;1291;23909;-76
2023/05/30 18:30:10;;;;;;;2.70;2.10;;;;;;;21.64;35.76;100207.54;104587;1292;139128;-75
2023/05/30 18:32:37;;;;;;;2.80;2.00;;;;;;;21.60;35.95;100202.05;104500;1297;139321;-76
2023/05/30 18:35:08;;;;;;;2.00;1.90;;;;;;;21.56;36.03;100201.20;104371;1304;22975;-75
2023/05/30 18:37:35;;;;;;;2.00;1.70;;;;;;;21.51;36.12;100202.60;104519;1305;139027;-76
2023/05/30 18:40:03;;;;;;;2.00;1.70;;;;;;;21.47;36.31;100199.05;104582;1295;22562;-76
2023/05/30 18:42:30;;;;;;;7.20;1.30;;;;;;;21.41;36.25;100200.46;104498;1292;23302;-73
2023/05/30 18:44:56;;;;;;;1.40;1.00;;;;;;;21.35;36.26;100196.80;104112;1300;139087;-78
2023/05/30 18:47:23;;;;;;;2.30;1.30;;;;;;;21.34;36.10;100199.17;104807;1295;23342;-84
2023/05/30 18:49:55;;;;;;;3.20;1.20;;;;;;;21.36;36.10;100209.16;104549;1297;137908;-77
2023/05/30 18:52:22;;;;;;;2.60;1.20;;;;;;;21.34;36.03;100207.96;104612;1304;140046;-76
2023/05/30 18:54:49;;;;;;;3.00;1.60;;;;;;;21.32;36.08;100208.34;104484;1295;23951;-78
2023/05/30 18:57:15;;;;;;;4.60;1.60;;;;;;;21.30;36.33;100211.40;104531;1291;137758;-76
2023/05/30 18:59:43;;;;;;;6.10;1.20;;;;;;;21.27;36.44;100212.41;104802;1296;23394;-83
2023/05/30 19:02:11;;;;;;;2.10;1.20;;;;;;;21.22;36.59;100215.05;105014;1298;138034;-80
2023/05/30 19:04:40;;;;;;;8.10;1.60;;;;;;;21.16;36.62;100212.15;105569;1294;136849;-81
2023/05/30 19:07:06;;;;;;;3.40;1.80;;;;;;;21.13;36.77;100214.73;105327;1300;24508;-81
2023/05/30 19:09:34;;;;;;;2.00;1.10;;;;;;;21.07;37.04;100214.25;104923;1297;137633;-81
2023/05/30 19:12:00;;;;;;;1.50;1.40;;;;;;;21.00;37.29;100211.44;105065;1294;22737;-83
2023/05/30 19:14:27;;;;;;;2.90;1.40;;;;;;;20.94;37.48;100211.23;104810;1289;25061;-84
2023/05/30 19:16:54;;;;;;;7.30;1.40;;;;;;;20.86;37.64;100211.08;104996;1294;138423;-85
2023/05/30 19:19:20;;;;;;;3.80;1.40;;;;;;;20.80;37.69;100209.45;104507;1297;22637;-84
2023/05/30 19:21:47;;;;;;;3.50;1.50;;;;;;;20.74;37.82;100209.30;104479;1300;136866;-84
2023/05/30 19:24:13;;;;;;;6.30;2.20;;;;;;;20.69;38.09;100206.89;104324;1297;140835;-82
2023/05/30 19:26:40;;;;;;;1.20;1.20;;;;;;;20.65;38.15;100211.29;104421;1301;25436;-84
2023/05/30 19:29:07;;;;;;;3.80;1.70;;;;;;;20.60;38.55;100216.21;104280;1297;139588;-79
2023/05/30 19:31:34;;;;;;;9.10;3.20;;;;;;;20.54;38.71;100214.85;104555;1295;23790;-80
2023/05/30 19:34:00;;;;;;;5.10;2.20;;;;;;;20.49;39.29;100215.55;104506;1295;137734;-81
2023/05/30 19:36:27;;;;;;;2.00;1.60;;;;;;;20.41;39.64;100212.39;104281;1295;141706;-82
2023/05/30 19:38:54;;;;;;;4.70;2.30;;;;;;;20.31;39.69;100211.75;104526;1305;24277;-81
2023/05/30 19:41:21;;;;;;;2.10;1.90;;;;;;;20.21;39.78;100214.43;104559;1294;138122;-83
2023/05/30 19:43:47;;;;;;;10.00;2.30;;;;;;;20.15;40.15;100215.89;104312;1295;22683;-81
2023/05/30 19:46:14;;;;;;;10.40;2.60;;;;;;;20.10;40.25;100216.05;104256;1297;139774;-84
2023/05/30 19:48:41;;;;;;;8.50;2.00;;;;;;;20.06;40.17;100214.33;104515;1288;138384;-81
2023/05/30 19:51:08;;;;;;;3.50;1.20;;;;;;;20.05;40.32;100212.58;104258;1307;22696;-79
2023/05/30 19:53:35;;;;;;;4.40;2.20;;;;;;;20.01;40.57;100210.55;104090;1294;138355;-82
2023/05/30 19:56:02;;;;;;;6.00;2.30;;;;;;;19.96;40.98;100216.98;104396;1297;25364;-84
2023/05/30 19:58:38;;;;;;;1.40;1.30;;;;;;;19.89;41.44;100217.23;104565;1298;22578;-80
2023/05/30 20:01:05;;;;;;;3.80;1.80;;;;;;;19.80;41.67;100218.63;104269;1295;137982;-79
2023/05/30 20:03:35;;;;;;;5.60;2.10;;;;;;;19.69;42.12;100216.42;104551;1294;24249;-79
2023/05/30 20:06:03;;;;;;;2.60;2.10;;;;;;;19.58;42.73;100215.56;104203;1297;138388;-80
2023/05/30 20:08:31;;;;;;;2.90;1.90;;;;;;;19.46;42.94;100220.89;104298;1297;138197;-81
2023/05/30 20:10:58;;;;;;;5.00;2.40;;;;;;;19.36;43.25;100221.50;104454;1297;23905;-81
2023/05/30 20:13:26;;;;;;;6.30;2.20;;;;;;;19.26;43.98;100220.50;104532;1295;137947;-82
2023/05/30 20:15:52;;;;;;;2.10;1.90;;;;;;;19.16;45.30;100222.42;104487;1294;25438;-79
2023/05/30 20:18:20;;;;;;;1.60;1.50;;;;;;;19.05;45.86;100221.83;104604;1295;137822;-83
2023/05/30 20:20:47;;;;;;;2.20;1.40;;;;;;;18.96;46.24;100221.95;104548;1305;138594;-81
2023/05/30 20:23:14;;;;;;;2.60;1.60;;;;;;;18.85;46.18;100220.21;104684;1289;24242;-84
2023/05/30 20:25:41;;;;;;;7.30;2.40;;;;;;;18.74;46.61;100219.80;104589;1295;137792;-80
2023/05/30 20:28:12;;;;;;;4.40;2.80;;;;;;;18.63;47.29;100217.12;104311;1302;139351;-82
2023/05/30 20:30:38;;;;;;;4.20;3.10;;;;;;;18.53;48.26;100214.21;105134;1297;22685;-82
2023/05/30 20:33:07;;;;;;;2.80;2.40;;;;;;;18.44;48.78;100213.79;104830;1304;138369;-80
2023/05/30 20:35:35;;;;;;;5.30;3.10;;;;;;;18.35;48.80;100214.11;104596;1288;26231;-78
2023/05/30 20:38:04;;;;;;;4.00;3.20;;;;;;;18.27;49.56;100211.31;104733;1301;136503;-82
2023/05/30 20:40:31;;;;;;;8.20;3.50;;;;;;;18.18;50.35;100210.30;104973;1298;139710;-79
2023/05/30 20:42:58;;;;;;;5.90;3.80;;;;;;;18.04;50.85;100200.11;105379;1297;25433;-82
2023/05/30 20:45:25;;;;;;;9.10;3.90;;;;;;;18.02;51.26;100206.77;104353;1298;137469;-82
2023/05/30 20:47:52;;;;;;;8.10;4.60;;;;;;;17.94;51.50;100201.55;104082;1301;24490;-83
2023/05/30 20:50:22;;;;;;;4.60;4.20;;;;;;;17.86;51.96;100201.60;104406;1288;139070;-82
2023/05/30 20:52:52;;;;;;;9.30;4.40;;;;;;;17.80;52.27;100199.84;104555;1298;139648;-81
2023/05/30 20:55:19;;;;;;;11.10;4.40;;;;;;;17.76;53.03;100202.51;104394;1296;22672;-80
2023/05/30 20:57:46;;;;;;;4.50;4.00;;;;;;;17.70;53.61;100209.63;104682;1294;138987;-80
2023/05/30 21:00:13;;;;;;;6.80;4.40;;;;;;;17.63;54.34;100212.13;104174;1297;138981;-81
2023/05/30 21:02:40;;;;;;;10.50;5.00;;;;;;;17.56;55.07;100211.91;104238;1298;22827;-82
2023/05/30 21:05:08;;;;;;;8.60;4.30;;;;;;;17.48;55.97;100216.83;104233;1304;139454;-75
2023/05/30 21:07:36;;;;;;;12.90;5.70;;;;;;;17.40;56.22;100218.90;104042;1297;24562;-80
2023/05/30 21:10:04;;;;;;;7.70;5.40;;;;;;;17.31;56.81;100218.18;104580;1298;137738;-82
2023/05/30 21:12:31;;;;;;;6.20;5.30;;;;;;;17.24;57.42;100219.25;104349;1305;138798;-83
2023/05/30 21:14:58;;;;;;;7.50;4.70;;;;;;;17.18;58.19;100221.31;104272;1295;24650;-86
2023/05/30 21:17:24;;;;;;;6.10;4.70;;;;;;;17.10;58.92;100222.45;104145;1305;138834;-83
2023/05/30 21:19:51;;;;;;;6.80;4.70;;;;;;;16.97;59.57;100211.31;104223;1288;24744;-83
2023/05/30 21:22:18;;;;;;;9.40;4.70;;;;;;;16.96;60.25;100217.33;103989;1297;138006;-80
2023/05/30 21:24:45;;;;;;;5.50;4.70;;;;;;;16.89;60.68;100216.25;104005;1303;140157;-82
2023/05/30 21:27:11;;;;;;;5.80;5.20;;;;;;;16.84;61.20;100219.12;104170;1295;24089;-81
2023/05/30 21:29:39;;;;;;;6.50;4.90;;;;;;;16.76;61.55;100214.39;103887;1297;139775;-82
2023/05/30 21:32:06;;;;;;;6.60;5.00;;;;;;;16.72;62.05;100216.02;104213;1304;138461;-82
2023/05/30 21:34:33;;;;;;;7.60;4.90;;;;;;;16.67;62.29;100214.40;104471;1294;25361;-82
2023/05/30 21:36:59;;;;;;;5.00;4.50;;;;;;;16.63;62.59;100214.80;104122;1297;138749;-79
2023/05/30 21:39:26;;;;;;;5.20;4.70;;;;;;;16.59;63.01;100216.14;104065;1304;25445;-81
2023/05/30 21:41:52;;;;;;;7.60;5.00;;;;;;;16.53;62.97;100211.38;104061;1294;139374;-77
2023/05/30 21:44:19;;;;;;;6.70;4.90;;;;;;;16.49;63.29;100212.02;104212;1294;138249;-81
2023/05/30 21:46:45;;;;;;;10.70;4.70;;;;;;;16.45;63.47;100209.65;104303;1294;22641;-75
2023/05/30 21:49:12;;;;;;;7.40;5.10;;;;;;;16.42;63.90;100212.53;104246;1304;137983;-79
2023/05/30 21:51:39;;;;;;;8.50;4.80;;;;;;;16.40;63.91;100207.80;104230;1301;25614;-80
2023/05/30 21:54:05;;;;;;;8.40;4.90;;;;;;;16.40;64.25;100209.92;104599;1303;138675;-83
2023/05/30 21:56:33;;;;;;;7.10;5.50;;;;;;;16.38;64.30;100210.13;104565;1298;139120;-79
2023/05/30 21:59:00;;;;;;;5.30;4.60;;;;;;;16.36;64.50;100207.71;104367;1302;25447;-79
2023/05/30 22:01:27;;;;;;;6.60;6.00;;;;;;;16.34;65.21;100206.70;104065;1304;138059;-81
2023/05/30 22:03:53;;;;;;;7.50;5.50;;;;;;;16.32;65.41;100209.80;104238;1305;25383;-81
2023/05/30 22:06:20;;;;;;;8.20;5.90;;;;;;;16.28;65.46;100210.23;104401;1304;139090;-77
2023/05/30 22:08:50;;;;;;;6.20;5.40;;;;;;;16.22;65.91;100215.73;104269;1298;139386;-80
2023/05/30 22:11:17;;;;;;;9.20;5.90;;;;;;;16.14;66.20;100213.11;104287;1292;23910;-80
2023/05/30 22:13:43;;;;;;;6.90;6.20;;;;;;;16.02;66.65;100200.25;104032;1305;142356;-79
2023/05/30 22:16:10;;;;;;;11.70;6.50;;;;;;;16.03;67.16;100214.64;104348;1297;138742;-81
2023/05/30 22:18:36;;;;;;;8.10;4.80;;;;;;;16.00;67.98;100211.95;103914;1306;22539;-77
2023/05/30 22:21:03;;;;;;;10.70;5.90;;;;;;;15.96;68.41;100211.13;104448;1301;138939;-81
2023/05/30 22:23:30;;;;;;;11.60;6.80;;;;;;;15.95;68.24;100213.29;104510;1304;22688;-83
2023/05/30 22:25:57;;;;;;;10.60;6.30;;;;;;;15.93;68.17;100216.03;104035;1301;139641;-80
2023/05/30 22:28:23;;;;;;;9.70;6.20;;;;;;;15.85;68.24;100202.94;103965;1299;140202;-77
2023/05/30 22:30:50;;;;;;;7.10;5.80;;;;;;;15.84;68.13;100202.88;104119;1301;25415;-79